Search for airport 
image banner adimage banner adimage banner ad
image banner ad

0PN4 - Kitner

Located in New Bloomfield, United States

ICAO - 0PN4, IATA -

Data provided by Airmate  

General information

Coordinates: N40°24'46" W77°14'29"
Elevation is 960 feet MSL.
Magnetic variation is -11° East
View others Airports in Pennsylvania

Operational data

Special qualification required
Current time UTC:
Current local time:
Weather at : KCXY - Capital City ( 40 km )
METAR: KCXY 091256Z 30003KT 10SM OVC100 09/02 A3011 RMK AO2 SLP199 T00890017 $
View NOTAMs / SUP AIP / TFR affecting this airport [VIEW]
Communications frequencies: [VIEW]

Runways:

RWY identifierQFULength (ft)Width (ft)SurfaceLDA (ft)
07500100GRASS
25500100GRASS

Airport contact information

Address: New Bloomfield United States

Satellite view of 0PN4